sensor_id;sensor_type;location;lat;lon;timestamp;P1;durP1;ratioP1;P2;durP2;ratioP2
38358;SDS011;42072;48.044;14.416;2023-02-03T00:01:02;4.18;;;1.80;;
38358;SDS011;42072;48.044;14.416;2023-02-03T00:03:30;4.00;;;2.17;;
38358;SDS011;42072;48.044;14.416;2023-02-03T00:05:57;2.65;;;1.67;;
38358;SDS011;42072;48.044;14.416;2023-02-03T00:08:26;2.67;;;1.60;;
38358;SDS011;42072;48.044;14.416;2023-02-03T00:10:53;3.97;;;1.80;;
38358;SDS011;42072;48.044;14.416;2023-02-03T00:13:21;2.58;;;1.10;;
38358;SDS011;42072;48.044;14.416;2023-02-03T00:15:49;2.40;;;1.60;;
38358;SDS011;42072;48.044;14.416;2023-02-03T00:18:16;2.78;;;1.50;;
38358;SDS011;42072;48.044;14.416;2023-02-03T00:20:43;3.45;;;1.50;;
38358;SDS011;42072;48.044;14.416;2023-02-03T00:23:11;2.45;;;1.60;;
38358;SDS011;42072;48.044;14.416;2023-02-03T00:25:38;1.83;;;1.40;;
38358;SDS011;42072;48.044;14.416;2023-02-03T00:28:06;2.00;;;1.40;;
38358;SDS011;42072;48.044;14.416;2023-02-03T00:30:33;1.20;;;1.10;;
38358;SDS011;42072;48.044;14.416;2023-02-03T00:33:02;2.25;;;1.65;;
38358;SDS011;42072;48.044;14.416;2023-02-03T00:35:30;2.65;;;1.50;;
38358;SDS011;42072;48.044;14.416;2023-02-03T00:37:57;1.60;;;1.30;;
38358;SDS011;42072;48.044;14.416;2023-02-03T00:40:25;3.50;;;1.42;;
38358;SDS011;42072;48.044;14.416;2023-02-03T00:42:53;1.67;;;1.23;;
38358;SDS011;42072;48.044;14.416;2023-02-03T00:45:20;2.80;;;1.30;;
38358;SDS011;42072;48.044;14.416;2023-02-03T00:47:48;3.53;;;1.25;;
38358;SDS011;42072;48.044;14.416;2023-02-03T00:50:15;1.88;;;1.23;;
38358;SDS011;42072;48.044;14.416;2023-02-03T00:52:43;1.95;;;1.40;;
38358;SDS011;42072;48.044;14.416;2023-02-03T00:55:10;1.38;;;1.20;;
38358;SDS011;42072;48.044;14.416;2023-02-03T00:57:37;1.10;;;1.00;;
38358;SDS011;42072;48.044;14.416;2023-02-03T01:00:04;2.00;;;1.02;;
38358;SDS011;42072;48.044;14.416;2023-02-03T01:02:32;1.40;;;1.00;;
38358;SDS011;42072;48.044;14.416;2023-02-03T01:04:59;1.20;;;0.80;;
38358;SDS011;42072;48.044;14.416;2023-02-03T01:07:26;1.88;;;1.17;;
38358;SDS011;42072;48.044;14.416;2023-02-03T01:09:56;1.75;;;0.95;;
38358;SDS011;42072;48.044;14.416;2023-02-03T01:12:23;2.03;;;0.70;;
38358;SDS011;42072;48.044;14.416;2023-02-03T01:14:51;1.83;;;0.82;;
38358;SDS011;42072;48.044;14.416;2023-02-03T01:17:18;3.47;;;1.90;;
38358;SDS011;42072;48.044;14.416;2023-02-03T01:19:45;6.40;;;4.28;;
38358;SDS011;42072;48.044;14.416;2023-02-03T01:22:12;10.40;;;7.13;;
38358;SDS011;42072;48.044;14.416;2023-02-03T01:24:39;7.20;;;5.55;;
38358;SDS011;42072;48.044;14.416;2023-02-03T01:27:06;9.38;;;5.78;;
38358;SDS011;42072;48.044;14.416;2023-02-03T01:29:34;7.63;;;5.57;;
38358;SDS011;42072;48.044;14.416;2023-02-03T01:32:01;7.03;;;4.75;;
38358;SDS011;42072;48.044;14.416;2023-02-03T01:34:28;5.93;;;3.75;;
38358;SDS011;42072;48.044;14.416;2023-02-03T01:36:55;12.13;;;5.25;;
38358;SDS011;42072;48.044;14.416;2023-02-03T01:39:22;8.38;;;4.80;;
38358;SDS011;42072;48.044;14.416;2023-02-03T01:41:53;5.05;;;3.92;;
38358;SDS011;42072;48.044;14.416;2023-02-03T01:49:43;3.20;;;2.38;;
38358;SDS011;42072;48.044;14.416;2023-02-03T01:52:14;3.20;;;2.45;;
38358;SDS011;42072;48.044;14.416;2023-02-03T01:54:42;2.20;;;1.90;;
38358;SDS011;42072;48.044;14.416;2023-02-03T01:57:18;2.90;;;2.53;;
38358;SDS011;42072;48.044;14.416;2023-02-03T01:59:50;3.28;;;2.60;;
38358;SDS011;42072;48.044;14.416;2023-02-03T02:02:21;3.20;;;2.53;;
38358;SDS011;42072;48.044;14.416;2023-02-03T02:05:06;3.13;;;2.55;;
38358;SDS011;42072;48.044;14.416;2023-02-03T02:07:45;2.70;;;2.30;;
38358;SDS011;42072;48.044;14.416;2023-02-03T02:10:14;2.63;;;2.30;;
38358;SDS011;42072;48.044;14.416;2023-02-03T02:12:41;4.47;;;2.22;;
38358;SDS011;42072;48.044;14.416;2023-02-03T02:15:08;3.00;;;2.42;;
38358;SDS011;42072;48.044;14.416;2023-02-03T02:37:37;4.20;;;2.30;;
38358;SDS011;42072;48.044;14.416;2023-02-03T02:45:58;2.70;;;2.15;;
38358;SDS011;42072;48.044;14.416;2023-02-03T02:49:11;3.78;;;1.90;;
38358;SDS011;42072;48.044;14.416;2023-02-03T02:51:35;4.30;;;1.90;;
38358;SDS011;42072;48.044;14.416;2023-02-03T02:54:05;3.72;;;1.73;;
38358;SDS011;42072;48.044;14.416;2023-02-03T02:56:35;3.25;;;1.65;;
38358;SDS011;42072;48.044;14.416;2023-02-03T02:59:05;4.07;;;1.45;;
38358;SDS011;42072;48.044;14.416;2023-02-03T03:01:33;3.22;;;1.85;;
38358;SDS011;42072;48.044;14.416;2023-02-03T03:04:01;2.58;;;1.70;;
38358;SDS011;42072;48.044;14.416;2023-02-03T03:06:32;2.92;;;1.70;;
38358;SDS011;42072;48.044;14.416;2023-02-03T03:09:04;2.90;;;1.70;;
38358;SDS011;42072;48.044;14.416;2023-02-03T03:11:39;3.67;;;1.90;;
38358;SDS011;42072;48.044;14.416;2023-02-03T03:14:09;3.35;;;1.90;;
38358;SDS011;42072;48.044;14.416;2023-02-03T03:16:39;4.13;;;1.80;;
38358;SDS011;42072;48.044;14.416;2023-02-03T03:19:13;4.63;;;1.80;;
38358;SDS011;42072;48.044;14.416;2023-02-03T03:21:57;3.28;;;1.90;;
38358;SDS011;42072;48.044;14.416;2023-02-03T03:24:32;3.83;;;1.80;;
38358;SDS011;42072;48.044;14.416;2023-02-03T03:30:10;2.90;;;1.60;;
38358;SDS011;42072;48.044;14.416;2023-02-03T03:32:51;3.17;;;2.00;;
38358;SDS011;42072;48.044;14.416;2023-02-03T03:35:19;1.92;;;1.50;;
38358;SDS011;42072;48.044;14.416;2023-02-03T03:37:54;4.13;;;1.52;;
38358;SDS011;42072;48.044;14.416;2023-02-03T03:40:28;4.18;;;1.80;;
38358;SDS011;42072;48.044;14.416;2023-02-03T03:43:01;2.55;;;1.50;;
38358;SDS011;42072;48.044;14.416;2023-02-03T03:45:38;2.05;;;1.20;;
38358;SDS011;42072;48.044;14.416;2023-02-03T03:48:16;1.73;;;1.35;;
38358;SDS011;42072;48.044;14.416;2023-02-03T03:50:52;1.35;;;1.02;;
38358;SDS011;42072;48.044;14.416;2023-02-03T03:53:34;1.42;;;1.25;;
38358;SDS011;42072;48.044;14.416;2023-02-03T03:56:04;2.53;;;0.80;;
38358;SDS011;42072;48.044;14.416;2023-02-03T03:58:35;2.67;;;1.40;;
38358;SDS011;42072;48.044;14.416;2023-02-03T04:01:05;2.00;;;1.08;;
38358;SDS011;42072;48.044;14.416;2023-02-03T04:03:37;1.65;;;0.85;;
38358;SDS011;42072;48.044;14.416;2023-02-03T04:06:15;0.82;;;0.80;;
38358;SDS011;42072;48.044;14.416;2023-02-03T04:08:42;1.65;;;0.90;;
38358;SDS011;42072;48.044;14.416;2023-02-03T04:11:10;2.10;;;0.65;;
38358;SDS011;42072;48.044;14.416;2023-02-03T04:13:57;1.88;;;0.80;;
38358;SDS011;42072;48.044;14.416;2023-02-03T04:16:24;2.00;;;0.90;;
38358;SDS011;42072;48.044;14.416;2023-02-03T04:18:51;0.70;;;0.60;;
38358;SDS011;42072;48.044;14.416;2023-02-03T04:21:18;1.13;;;0.90;;
38358;SDS011;42072;48.044;14.416;2023-02-03T04:23:45;1.02;;;0.60;;
38358;SDS011;42072;48.044;14.416;2023-02-03T04:26:13;1.75;;;0.80;;
38358;SDS011;42072;48.044;14.416;2023-02-03T04:28:40;1.08;;;0.70;;
38358;SDS011;42072;48.044;14.416;2023-02-03T04:31:08;1.10;;;0.70;;
38358;SDS011;42072;48.044;14.416;2023-02-03T04:33:36;0.88;;;0.70;;
38358;SDS011;42072;48.044;14.416;2023-02-03T04:36:03;1.50;;;0.80;;
38358;SDS011;42072;48.044;14.416;2023-02-03T04:38:30;1.13;;;0.90;;
38358;SDS011;42072;48.044;14.416;2023-02-03T04:40:58;0.80;;;0.80;;
38358;SDS011;42072;48.044;14.416;2023-02-03T04:43:25;2.28;;;1.17;;
38358;SDS011;42072;48.044;14.416;2023-02-03T04:45:53;1.65;;;0.73;;
38358;SDS011;42072;48.044;14.416;2023-02-03T04:48:20;1.30;;;0.68;;
38358;SDS011;42072;48.044;14.416;2023-02-03T04:50:47;1.50;;;0.90;;
38358;SDS011;42072;48.044;14.416;2023-02-03T04:53:14;2.03;;;1.00;;
38358;SDS011;42072;48.044;14.416;2023-02-03T04:55:44;2.30;;;0.80;;
38358;SDS011;42072;48.044;14.416;2023-02-03T04:58:15;1.60;;;0.95;;
38358;SDS011;42072;48.044;14.416;2023-02-03T05:00:42;2.90;;;1.05;;
38358;SDS011;42072;48.044;14.416;2023-02-03T05:03:09;1.38;;;0.90;;
38358;SDS011;42072;48.044;14.416;2023-02-03T05:05:36;1.83;;;1.10;;
38358;SDS011;42072;48.044;14.416;2023-02-03T05:08:03;2.90;;;0.75;;
38358;SDS011;42072;48.044;14.416;2023-02-03T05:10:31;1.73;;;1.05;;
38358;SDS011;42072;48.044;14.416;2023-02-03T05:12:58;2.22;;;0.77;;
38358;SDS011;42072;48.044;14.416;2023-02-03T05:15:25;0.95;;;0.85;;
38358;SDS011;42072;48.044;14.416;2023-02-03T05:17:55;1.80;;;0.88;;
38358;SDS011;42072;48.044;14.416;2023-02-03T05:20:23;1.23;;;0.82;;
38358;SDS011;42072;48.044;14.416;2023-02-03T05:22:51;0.93;;;0.88;;
38358;SDS011;42072;48.044;14.416;2023-02-03T05:25:18;1.02;;;0.93;;
38358;SDS011;42072;48.044;14.416;2023-02-03T05:27:45;2.20;;;0.95;;
38358;SDS011;42072;48.044;14.416;2023-02-03T05:30:12;2.58;;;1.50;;
38358;SDS011;42072;48.044;14.416;2023-02-03T05:32:39;5.20;;;2.10;;
38358;SDS011;42072;48.044;14.416;2023-02-03T05:35:06;2.17;;;1.42;;
38358;SDS011;42072;48.044;14.416;2023-02-03T05:37:33;2.20;;;1.27;;
38358;SDS011;42072;48.044;14.416;2023-02-03T05:40:01;2.30;;;1.67;;
38358;SDS011;42072;48.044;14.416;2023-02-03T05:42:49;2.90;;;1.77;;
38358;SDS011;42072;48.044;14.416;2023-02-03T05:45:17;4.32;;;1.20;;
38358;SDS011;42072;48.044;14.416;2023-02-03T05:47:44;2.85;;;1.60;;
38358;SDS011;42072;48.044;14.416;2023-02-03T05:50:11;1.83;;;1.40;;
38358;SDS011;42072;48.044;14.416;2023-02-03T05:52:38;2.05;;;1.30;;
38358;SDS011;42072;48.044;14.416;2023-02-03T05:55:05;2.65;;;1.17;;
38358;SDS011;42072;48.044;14.416;2023-02-03T05:57:33;2.03;;;1.23;;
38358;SDS011;42072;48.044;14.416;2023-02-03T06:00:00;2.22;;;1.10;;
38358;SDS011;42072;48.044;14.416;2023-02-03T06:02:27;1.60;;;0.93;;
38358;SDS011;42072;48.044;14.416;2023-02-03T06:04:54;1.60;;;1.17;;
38358;SDS011;42072;48.044;14.416;2023-02-03T06:07:21;2.05;;;1.15;;
38358;SDS011;42072;48.044;14.416;2023-02-03T06:09:48;2.38;;;1.33;;
38358;SDS011;42072;48.044;14.416;2023-02-03T06:12:16;1.85;;;1.08;;
38358;SDS011;42072;48.044;14.416;2023-02-03T06:14:43;1.98;;;1.33;;
38358;SDS011;42072;48.044;14.416;2023-02-03T06:17:10;3.95;;;1.98;;
38358;SDS011;42072;48.044;14.416;2023-02-03T06:19:37;3.33;;;1.92;;
38358;SDS011;42072;48.044;14.416;2023-02-03T06:22:04;4.35;;;2.40;;
38358;SDS011;42072;48.044;14.416;2023-02-03T06:24:31;2.80;;;1.85;;
38358;SDS011;42072;48.044;14.416;2023-02-03T06:26:58;2.03;;;1.30;;
38358;SDS011;42072;48.044;14.416;2023-02-03T06:29:25;5.13;;;2.90;;
38358;SDS011;42072;48.044;14.416;2023-02-03T06:31:52;2.55;;;1.52;;
38358;SDS011;42072;48.044;14.416;2023-02-03T06:34:20;3.92;;;2.22;;
38358;SDS011;42072;48.044;14.416;2023-02-03T06:36:47;2.60;;;1.60;;
38358;SDS011;42072;48.044;14.416;2023-02-03T06:39:14;2.33;;;0.95;;
38358;SDS011;42072;48.044;14.416;2023-02-03T06:41:41;1.45;;;1.00;;
38358;SDS011;42072;48.044;14.416;2023-02-03T06:44:08;1.70;;;0.95;;
38358;SDS011;42072;48.044;14.416;2023-02-03T06:46:36;2.20;;;1.00;;
38358;SDS011;42072;48.044;14.416;2023-02-03T06:49:03;1.40;;;1.00;;
38358;SDS011;42072;48.044;14.416;2023-02-03T06:51:30;1.20;;;1.10;;
38358;SDS011;42072;48.044;14.416;2023-02-03T06:53:58;2.75;;;1.13;;
38358;SDS011;42072;48.044;14.416;2023-02-03T06:56:25;2.58;;;1.15;;
38358;SDS011;42072;48.044;14.416;2023-02-03T06:58:52;1.35;;;0.70;;
38358;SDS011;42072;48.044;14.416;2023-02-03T07:01:19;1.00;;;0.80;;
38358;SDS011;42072;48.044;14.416;2023-02-03T07:03:47;1.23;;;0.80;;
38358;SDS011;42072;48.044;14.416;2023-02-03T07:06:14;3.28;;;1.23;;
38358;SDS011;42072;48.044;14.416;2023-02-03T07:08:41;1.88;;;0.70;;
38358;SDS011;42072;48.044;14.416;2023-02-03T07:11:08;1.63;;;1.30;;
38358;SDS011;42072;48.044;14.416;2023-02-03T07:13:35;2.75;;;1.38;;
38358;SDS011;42072;48.044;14.416;2023-02-03T07:16:03;3.10;;;1.02;;
38358;SDS011;42072;48.044;14.416;2023-02-03T07:18:30;3.08;;;1.40;;
38358;SDS011;42072;48.044;14.416;2023-02-03T07:21:13;3.53;;;0.93;;
38358;SDS011;42072;48.044;14.416;2023-02-03T07:23:42;1.63;;;0.90;;
38358;SDS011;42072;48.044;14.416;2023-02-03T07:26:12;2.97;;;0.88;;
38358;SDS011;42072;48.044;14.416;2023-02-03T07:28:39;1.58;;;1.05;;
38358;SDS011;42072;48.044;14.416;2023-02-03T07:31:06;1.58;;;0.80;;
38358;SDS011;42072;48.044;14.416;2023-02-03T07:33:36;2.88;;;1.20;;
38358;SDS011;42072;48.044;14.416;2023-02-03T07:36:04;1.85;;;0.90;;
38358;SDS011;42072;48.044;14.416;2023-02-03T07:38:32;2.22;;;1.27;;
38358;SDS011;42072;48.044;14.416;2023-02-03T07:40:59;6.50;;;2.90;;
38358;SDS011;42072;48.044;14.416;2023-02-03T07:43:26;4.90;;;1.75;;
38358;SDS011;42072;48.044;14.416;2023-02-03T07:45:53;3.67;;;1.20;;
38358;SDS011;42072;48.044;14.416;2023-02-03T07:48:21;2.97;;;1.20;;
38358;SDS011;42072;48.044;14.416;2023-02-03T07:50:48;1.60;;;1.40;;
38358;SDS011;42072;48.044;14.416;2023-02-03T07:53:16;1.08;;;0.98;;
38358;SDS011;42072;48.044;14.416;2023-02-03T07:55:43;5.93;;;1.30;;
38358;SDS011;42072;48.044;14.416;2023-02-03T07:58:10;3.55;;;1.67;;
38358;SDS011;42072;48.044;14.416;2023-02-03T08:00:37;2.85;;;1.20;;
38358;SDS011;42072;48.044;14.416;2023-02-03T08:03:05;1.83;;;1.20;;
38358;SDS011;42072;48.044;14.416;2023-02-03T08:05:32;2.63;;;1.30;;
38358;SDS011;42072;48.044;14.416;2023-02-03T08:07:59;3.00;;;1.23;;
38358;SDS011;42072;48.044;14.416;2023-02-03T08:10:26;1.73;;;1.38;;
38358;SDS011;42072;48.044;14.416;2023-02-03T08:12:54;2.97;;;1.67;;
38358;SDS011;42072;48.044;14.416;2023-02-03T08:15:22;4.40;;;2.72;;
38358;SDS011;42072;48.044;14.416;2023-02-03T08:17:49;2.30;;;1.38;;
38358;SDS011;42072;48.044;14.416;2023-02-03T08:20:16;1.63;;;1.13;;
38358;SDS011;42072;48.044;14.416;2023-02-03T08:22:43;2.22;;;1.10;;
38358;SDS011;42072;48.044;14.416;2023-02-03T08:25:11;2.63;;;1.67;;
38358;SDS011;42072;48.044;14.416;2023-02-03T08:27:39;2.80;;;1.50;;
38358;SDS011;42072;48.044;14.416;2023-02-03T08:30:08;2.80;;;1.90;;
38358;SDS011;42072;48.044;14.416;2023-02-03T08:32:40;3.00;;;1.33;;
38358;SDS011;42072;48.044;14.416;2023-02-03T08:35:08;3.08;;;1.70;;
38358;SDS011;42072;48.044;14.416;2023-02-03T08:37:35;2.05;;;1.02;;
38358;SDS011;42072;48.044;14.416;2023-02-03T08:40:03;2.38;;;1.27;;
38358;SDS011;42072;48.044;14.416;2023-02-03T08:42:31;3.22;;;1.23;;
38358;SDS011;42072;48.044;14.416;2023-02-03T08:44:58;2.47;;;1.40;;
38358;SDS011;42072;48.044;14.416;2023-02-03T08:47:27;2.17;;;1.30;;
38358;SDS011;42072;48.044;14.416;2023-02-03T08:49:54;3.47;;;2.08;;
38358;SDS011;42072;48.044;14.416;2023-02-03T08:52:21;2.92;;;0.98;;
38358;SDS011;42072;48.044;14.416;2023-02-03T08:54:49;1.27;;;0.93;;
38358;SDS011;42072;48.044;14.416;2023-02-03T08:57:16;1.08;;;0.75;;
38358;SDS011;42072;48.044;14.416;2023-02-03T08:59:43;1.00;;;0.65;;
38358;SDS011;42072;48.044;14.416;2023-02-03T09:02:15;1.13;;;0.60;;
38358;SDS011;42072;48.044;14.416;2023-02-03T09:04:44;0.80;;;0.80;;
38358;SDS011;42072;48.044;14.416;2023-02-03T09:07:12;2.05;;;1.00;;
38358;SDS011;42072;48.044;14.416;2023-02-03T09:09:42;1.23;;;0.82;;
38358;SDS011;42072;48.044;14.416;2023-02-03T09:12:09;0.95;;;0.80;;
38358;SDS011;42072;48.044;14.416;2023-02-03T09:14:38;0.93;;;0.77;;
38358;SDS011;42072;48.044;14.416;2023-02-03T09:17:05;2.35;;;0.75;;
38358;SDS011;42072;48.044;14.416;2023-02-03T09:19:33;1.63;;;0.98;;
38358;SDS011;42072;48.044;14.416;2023-02-03T09:22:02;1.05;;;0.70;;
38358;SDS011;42072;48.044;14.416;2023-02-03T09:24:29;1.25;;;0.90;;
38358;SDS011;42072;48.044;14.416;2023-02-03T09:26:57;2.28;;;0.65;;
38358;SDS011;42072;48.044;14.416;2023-02-03T09:29:26;0.95;;;0.80;;
38358;SDS011;42072;48.044;14.416;2023-02-03T09:31:54;1.75;;;0.93;;
38358;SDS011;42072;48.044;14.416;2023-02-03T09:34:21;0.95;;;0.80;;
38358;SDS011;42072;48.044;14.416;2023-02-03T09:36:48;1.02;;;0.80;;
38358;SDS011;42072;48.044;14.416;2023-02-03T09:39:16;0.93;;;0.68;;
38358;SDS011;42072;48.044;14.416;2023-02-03T09:46:55;1.27;;;0.90;;
38358;SDS011;42072;48.044;14.416;2023-02-03T09:49:28;1.27;;;0.70;;
38358;SDS011;42072;48.044;14.416;2023-02-03T09:52:13;1.58;;;0.90;;
38358;SDS011;42072;48.044;14.416;2023-02-03T09:54:52;2.90;;;0.98;;
38358;SDS011;42072;48.044;14.416;2023-02-03T09:57:34;1.13;;;0.90;;
38358;SDS011;42072;48.044;14.416;2023-02-03T10:00:42;2.47;;;1.20;;
38358;SDS011;42072;48.044;14.416;2023-02-03T10:03:06;3.30;;;1.00;;
38358;SDS011;42072;48.044;14.416;2023-02-03T10:08:24;0.95;;;0.70;;
38358;SDS011;42072;48.044;14.416;2023-02-03T10:10:58;0.57;;;0.55;;
38358;SDS011;42072;48.044;14.416;2023-02-03T10:19:14;2.45;;;1.00;;
38358;SDS011;42072;48.044;14.416;2023-02-03T10:21:47;2.97;;;1.52;;
38358;SDS011;42072;48.044;14.416;2023-02-03T10:24:19;2.83;;;1.27;;
38358;SDS011;42072;48.044;14.416;2023-02-03T10:26:52;1.45;;;0.88;;
38358;SDS011;42072;48.044;14.416;2023-02-03T10:29:40;1.67;;;0.90;;
38358;SDS011;42072;48.044;14.416;2023-02-03T10:32:09;1.75;;;1.20;;
38358;SDS011;42072;48.044;14.416;2023-02-03T10:34:38;3.22;;;1.38;;
38358;SDS011;42072;48.044;14.416;2023-02-03T10:39:45;4.07;;;1.80;;
38358;SDS011;42072;48.044;14.416;2023-02-03T10:42:16;6.38;;;2.28;;
38358;SDS011;42072;48.044;14.416;2023-02-03T10:44:46;6.45;;;2.42;;
38358;SDS011;42072;48.044;14.416;2023-02-03T10:50:06;3.95;;;1.90;;
38358;SDS011;42072;48.044;14.416;2023-02-03T10:52:44;5.22;;;1.80;;
38358;SDS011;42072;48.044;14.416;2023-02-03T10:57:51;1.88;;;0.70;;
38358;SDS011;42072;48.044;14.416;2023-02-03T11:06:02;0.65;;;0.60;;
38358;SDS011;42072;48.044;14.416;2023-02-03T11:08:31;1.92;;;1.20;;
38358;SDS011;42072;48.044;14.416;2023-02-03T11:11:04;5.13;;;2.00;;
38358;SDS011;42072;48.044;14.416;2023-02-03T11:13:38;1.85;;;1.15;;
38358;SDS011;42072;48.044;14.416;2023-02-03T11:16:08;2.60;;;1.35;;
38358;SDS011;42072;48.044;14.416;2023-02-03T11:24:04;1.83;;;1.10;;
38358;SDS011;42072;48.044;14.416;2023-02-03T11:26:38;3.97;;;1.88;;
38358;SDS011;42072;48.044;14.416;2023-02-03T11:29:30;1.70;;;1.02;;
38358;SDS011;42072;48.044;14.416;2023-02-03T11:32:00;1.15;;;0.75;;
38358;SDS011;42072;48.044;14.416;2023-02-03T11:34:56;1.13;;;0.73;;
38358;SDS011;42072;48.044;14.416;2023-02-03T11:42:34;2.63;;;1.20;;
38358;SDS011;42072;48.044;14.416;2023-02-03T11:51:12;1.42;;;0.95;;
38358;SDS011;42072;48.044;14.416;2023-02-03T12:23:31;4.47;;;1.10;;
38358;SDS011;42072;48.044;14.416;2023-02-03T12:26:16;5.13;;;2.20;;
38358;SDS011;42072;48.044;14.416;2023-02-03T12:31:25;2.13;;;0.70;;
38358;SDS011;42072;48.044;14.416;2023-02-03T12:36:39;3.53;;;1.23;;
38358;SDS011;42072;48.044;14.416;2023-02-03T12:39:30;2.10;;;0.70;;
38358;SDS011;42072;48.044;14.416;2023-02-03T12:42:01;2.80;;;0.90;;
38358;SDS011;42072;48.044;14.416;2023-02-03T12:49:49;1.90;;;0.88;;
38358;SDS011;42072;48.044;14.416;2023-02-03T12:52:22;2.67;;;1.75;;
38358;SDS011;42072;48.044;14.416;2023-02-03T12:54:58;2.97;;;1.80;;
38358;SDS011;42072;48.044;14.416;2023-02-03T12:57:38;3.00;;;1.40;;
38358;SDS011;42072;48.044;14.416;2023-02-03T13:05:52;1.42;;;0.80;;
38358;SDS011;42072;48.044;14.416;2023-02-03T13:08:37;1.65;;;0.70;;
38358;SDS011;42072;48.044;14.416;2023-02-03T13:11:25;2.65;;;1.50;;
38358;SDS011;42072;48.044;14.416;2023-02-03T13:14:19;3.88;;;2.05;;
38358;SDS011;42072;48.044;14.416;2023-02-03T13:16:53;3.95;;;2.35;;
38358;SDS011;42072;48.044;14.416;2023-02-03T13:19:35;6.10;;;2.83;;
38358;SDS011;42072;48.044;14.416;2023-02-03T13:22:11;4.07;;;1.63;;
38358;SDS011;42072;48.044;14.416;2023-02-03T13:24:42;1.27;;;0.90;;
38358;SDS011;42072;48.044;14.416;2023-02-03T13:27:21;1.58;;;0.93;;
38358;SDS011;42072;48.044;14.416;2023-02-03T13:44:51;1.80;;;0.77;;
38358;SDS011;42072;48.044;14.416;2023-02-03T13:47:23;0.90;;;0.60;;
38358;SDS011;42072;48.044;14.416;2023-02-03T13:49:55;0.60;;;0.60;;
38358;SDS011;42072;48.044;14.416;2023-02-03T13:52:31;0.80;;;0.70;;
38358;SDS011;42072;48.044;14.416;2023-02-03T13:57:58;0.70;;;0.70;;
38358;SDS011;42072;48.044;14.416;2023-02-03T14:05:52;9.68;;;2.50;;
38358;SDS011;42072;48.044;14.416;2023-02-03T14:16:33;2.42;;;1.10;;
38358;SDS011;42072;48.044;14.416;2023-02-03T14:19:02;10.50;;;4.25;;
38358;SDS011;42072;48.044;14.416;2023-02-03T14:21:41;1.23;;;1.00;;
38358;SDS011;42072;48.044;14.416;2023-02-03T14:24:39;1.50;;;1.20;;
38358;SDS011;42072;48.044;14.416;2023-02-03T14:27:20;7.15;;;1.88;;
38358;SDS011;42072;48.044;14.416;2023-02-03T14:30:06;10.50;;;1.55;;
38358;SDS011;42072;48.044;14.416;2023-02-03T14:32:49;2.87;;;1.80;;
38358;SDS011;42072;48.044;14.416;2023-02-03T14:35:17;1.08;;;0.77;;
38358;SDS011;42072;48.044;14.416;2023-02-03T14:37:55;2.78;;;1.27;;
38358;SDS011;42072;48.044;14.416;2023-02-03T14:54:05;1.60;;;1.00;;
38358;SDS011;42072;48.044;14.416;2023-02-03T14:56:58;1.17;;;0.90;;
38358;SDS011;42072;48.044;14.416;2023-02-03T14:59:47;1.55;;;1.13;;
38358;SDS011;42072;48.044;14.416;2023-02-03T15:02:21;2.63;;;0.90;;
38358;SDS011;42072;48.044;14.416;2023-02-03T15:07:41;1.20;;;0.77;;
38358;SDS011;42072;48.044;14.416;2023-02-03T15:10:13;11.88;;;1.30;;
38358;SDS011;42072;48.044;14.416;2023-02-03T15:12:58;2.35;;;1.27;;
38358;SDS011;42072;48.044;14.416;2023-02-03T15:15:26;2.00;;;1.00;;
38358;SDS011;42072;48.044;14.416;2023-02-03T15:17:56;1.65;;;1.00;;
38358;SDS011;42072;48.044;14.416;2023-02-03T15:20:35;4.88;;;1.40;;
38358;SDS011;42072;48.044;14.416;2023-02-03T15:23:17;1.25;;;0.60;;
38358;SDS011;42072;48.044;14.416;2023-02-03T15:25:54;1.27;;;0.82;;
38358;SDS011;42072;48.044;14.416;2023-02-03T15:28:26;3.05;;;1.40;;
38358;SDS011;42072;48.044;14.416;2023-02-03T15:31:00;1.45;;;1.00;;
38358;SDS011;42072;48.044;14.416;2023-02-03T15:33:35;3.13;;;1.00;;
38358;SDS011;42072;48.044;14.416;2023-02-03T15:36:05;21.77;;;2.33;;
38358;SDS011;42072;48.044;14.416;2023-02-03T15:38:40;13.52;;;3.75;;
38358;SDS011;42072;48.044;14.416;2023-02-03T15:41:29;8.75;;;3.38;;
38358;SDS011;42072;48.044;14.416;2023-02-03T15:43:59;5.85;;;2.55;;
38358;SDS011;42072;48.044;14.416;2023-02-03T15:49:07;6.38;;;3.42;;
38358;SDS011;42072;48.044;14.416;2023-02-03T15:52:18;1.83;;;0.77;;
38358;SDS011;42072;48.044;14.416;2023-02-03T15:54:43;4.00;;;1.77;;
38358;SDS011;42072;48.044;14.416;2023-02-03T15:57:26;6.68;;;2.15;;
38358;SDS011;42072;48.044;14.416;2023-02-03T15:59:57;5.82;;;2.75;;
38358;SDS011;42072;48.044;14.416;2023-02-03T16:02:28;4.55;;;1.90;;
38358;SDS011;42072;48.044;14.416;2023-02-03T16:04:56;4.03;;;1.92;;
38358;SDS011;42072;48.044;14.416;2023-02-03T16:07:28;3.13;;;1.60;;
38358;SDS011;42072;48.044;14.416;2023-02-03T16:09:57;4.07;;;1.60;;
38358;SDS011;42072;48.044;14.416;2023-02-03T16:12:26;14.00;;;2.40;;
38358;SDS011;42072;48.044;14.416;2023-02-03T16:14:55;3.72;;;1.27;;
38358;SDS011;42072;48.044;14.416;2023-02-03T16:22:44;7.32;;;2.08;;
38358;SDS011;42072;48.044;14.416;2023-02-03T16:25:25;6.05;;;1.95;;
38358;SDS011;42072;48.044;14.416;2023-02-03T16:27:56;2.35;;;1.25;;
38358;SDS011;42072;48.044;14.416;2023-02-03T16:30:57;9.43;;;2.00;;
38358;SDS011;42072;48.044;14.416;2023-02-03T16:33:49;10.77;;;2.53;;
38358;SDS011;42072;48.044;14.416;2023-02-03T16:36:41;7.18;;;2.35;;
38358;SDS011;42072;48.044;14.416;2023-02-03T16:39:28;13.23;;;2.22;;
38358;SDS011;42072;48.044;14.416;2023-02-03T16:42:15;3.03;;;1.02;;
38358;SDS011;42072;48.044;14.416;2023-02-03T16:45:03;2.42;;;1.60;;
38358;SDS011;42072;48.044;14.416;2023-02-03T16:48:02;5.78;;;1.40;;
38358;SDS011;42072;48.044;14.416;2023-02-03T16:50:48;12.05;;;2.08;;
38358;SDS011;42072;48.044;14.416;2023-02-03T16:53:26;1.50;;;1.20;;
38358;SDS011;42072;48.044;14.416;2023-02-03T16:55:57;2.55;;;0.90;;
38358;SDS011;42072;48.044;14.416;2023-02-03T16:58:26;1.67;;;1.33;;
38358;SDS011;42072;48.044;14.416;2023-02-03T17:00:56;1.17;;;0.82;;
38358;SDS011;42072;48.044;14.416;2023-02-03T17:03:26;3.55;;;1.65;;
38358;SDS011;42072;48.044;14.416;2023-02-03T17:05:55;7.10;;;1.52;;
38358;SDS011;42072;48.044;14.416;2023-02-03T17:08:23;4.93;;;1.58;;
38358;SDS011;42072;48.044;14.416;2023-02-03T17:10:51;3.28;;;1.20;;
38358;SDS011;42072;48.044;14.416;2023-02-03T17:13:19;1.33;;;0.93;;
38358;SDS011;42072;48.044;14.416;2023-02-03T17:15:49;5.50;;;1.40;;
38358;SDS011;42072;48.044;14.416;2023-02-03T17:18:20;1.40;;;1.10;;
38358;SDS011;42072;48.044;14.416;2023-02-03T17:20:48;2.67;;;1.13;;
38358;SDS011;42072;48.044;14.416;2023-02-03T17:23:16;2.38;;;1.20;;
38358;SDS011;42072;48.044;14.416;2023-02-03T17:25:44;1.50;;;1.10;;
38358;SDS011;42072;48.044;14.416;2023-02-03T17:28:14;1.63;;;0.90;;
38358;SDS011;42072;48.044;14.416;2023-02-03T17:30:42;2.15;;;1.20;;
38358;SDS011;42072;48.044;14.416;2023-02-03T17:33:10;2.65;;;0.93;;
38358;SDS011;42072;48.044;14.416;2023-02-03T17:35:38;8.07;;;0.88;;
38358;SDS011;42072;48.044;14.416;2023-02-03T17:38:07;2.13;;;1.30;;
38358;SDS011;42072;48.044;14.416;2023-02-03T17:40:39;3.85;;;1.88;;
38358;SDS011;42072;48.044;14.416;2023-02-03T17:43:26;4.40;;;2.40;;
38358;SDS011;42072;48.044;14.416;2023-02-03T17:46:12;4.50;;;1.90;;
38358;SDS011;42072;48.044;14.416;2023-02-03T17:48:58;4.30;;;2.50;;
38358;SDS011;42072;48.044;14.416;2023-02-03T17:51:42;3.95;;;2.22;;
38358;SDS011;42072;48.044;14.416;2023-02-03T17:54:27;4.93;;;2.50;;
38358;SDS011;42072;48.044;14.416;2023-02-03T17:56:54;3.70;;;1.85;;
38358;SDS011;42072;48.044;14.416;2023-02-03T17:59:22;4.57;;;1.92;;